createdAt,value
2023-02-11T07:26:34.560Z,8.12
2023-02-11T07:29:02.693Z,7.96
2023-02-11T07:31:31.668Z,8.66
2023-02-11T07:34:02.271Z,8.92
2023-02-11T07:36:31.983Z,9.71
2023-02-11T07:39:00.321Z,10.37
2023-02-11T07:41:28.177Z,9.97
2023-02-11T07:43:56.105Z,10.77
2023-02-11T07:46:27.127Z,11.05
2023-02-11T07:48:55.739Z,11.46
2023-02-11T07:51:26.266Z,11.03
2023-02-11T07:53:55.448Z,10.77
2023-02-11T07:56:24.359Z,11.48
2023-02-11T07:58:52.080Z,10.84
2023-02-11T08:01:26.041Z,11.50
2023-02-11T08:03:54.247Z,11.41
2023-02-11T08:06:24.592Z,10.82
2023-02-11T08:08:53.219Z,10.87
2023-02-11T08:11:28.753Z,10.25
2023-02-11T08:13:56.973Z,10.41
2023-02-11T08:16:34.216Z,10.37
2023-02-11T08:19:06.605Z,9.42
2023-02-11T08:21:34.234Z,9.16
2023-02-11T08:24:03.507Z,8.47
2023-02-11T08:26:34.713Z,8.86
2023-02-11T08:29:08.605Z,8.76
2023-02-11T08:31:40.814Z,8.36
2023-02-11T08:34:09.986Z,8.89
2023-02-11T08:36:39.571Z,8.53
2023-02-11T08:39:19.556Z,8.43
2023-02-11T08:41:51.503Z,7.97
2023-02-11T08:44:20.929Z,9.15
2023-02-11T08:46:49.656Z,9.52
2023-02-11T08:49:17.937Z,10.57
2023-02-11T08:51:46.464Z,10.41
2023-02-11T08:54:14.526Z,10.48
2023-02-11T08:56:42.304Z,11.16
2023-02-11T08:59:15.476Z,10.78
2023-02-11T09:01:44.262Z,9.97
2023-02-11T09:04:12.053Z,10.35
2023-02-11T09:06:39.951Z,10.33
2023-02-11T09:09:13.639Z,10.29
2023-02-11T09:11:43.934Z,10.54
2023-02-11T09:14:23.375Z,10.34
2023-02-11T09:16:51.932Z,11.04
2023-02-11T09:19:20.082Z,9.48
2023-02-11T09:21:47.594Z,10.03
2023-02-11T09:24:15.578Z,10.76
2023-02-11T09:26:43.865Z,10.86
2023-02-11T09:29:11.399Z,11.31
2023-02-11T09:31:39.055Z,10.58
2023-02-11T09:34:06.955Z,11.30
2023-02-11T09:36:40.668Z,11.47
2023-02-11T09:39:20.261Z,10.80
2023-02-11T09:42:06.417Z,11.12
2023-02-11T09:44:37.010Z,10.92
2023-02-11T09:47:28.600Z,11.24
2023-02-11T09:50:11.376Z,11.87
2023-02-11T09:53:13.212Z,11.72
2023-02-11T09:55:46.211Z,11.67
2023-02-11T09:58:13.491Z,11.50
2023-02-11T10:00:50.649Z,11.34
2023-02-11T10:03:42.635Z,11.98
2023-02-11T10:06:38.454Z,11.38
2023-02-11T10:09:37.663Z,11.96
2023-02-11T10:12:37.976Z,11.92
2023-02-11T10:15:21.876Z,12.94
2023-02-11T10:18:08.408Z,13.42
2023-02-11T10:21:06.782Z,12.71
2023-02-11T10:23:39.493Z,12.48
2023-02-11T10:26:16.665Z,11.84
2023-02-11T10:28:51.776Z,11.47
2023-02-11T10:31:29.166Z,12.11
2023-02-11T10:34:10.504Z,12.03
2023-02-11T10:36:42.933Z,12.17
2023-02-11T10:39:21.177Z,11.79
2023-02-11T10:41:59.682Z,12.38
2023-02-11T10:44:31.829Z,12.10
2023-02-11T10:47:12.844Z,12.52
2023-02-11T10:49:45.527Z,12.10
2023-02-11T10:52:27.962Z,12.12
2023-02-11T10:55:10.511Z,12.76
2023-02-11T10:58:03.066Z,11.40
2023-02-11T11:00:42.190Z,12.08
2023-02-11T11:03:26.021Z,12.16
2023-02-11T11:06:02.024Z,12.21
2023-02-11T11:08:51.635Z,11.76
2023-02-11T11:11:23.026Z,11.93
2023-02-11T11:13:53.349Z,11.75
2023-02-11T11:16:25.041Z,11.48
2023-02-11T11:19:08.892Z,11.14
2023-02-11T11:21:48.055Z,10.79
2023-02-11T11:24:46.678Z,10.73
2023-02-11T11:27:25.891Z,10.71
2023-02-11T11:29:56.415Z,10.99
2023-02-11T11:32:27.168Z,10.85
2023-02-11T11:35:08.489Z,9.89
2023-02-11T11:37:38.914Z,9.76
2023-02-11T11:40:15.735Z,10.28
2023-02-11T11:42:43.985Z,8.51
2023-02-11T11:45:20.044Z,9.56
2023-02-11T11:48:03.072Z,9.70
2023-02-11T11:50:50.334Z,9.75
2023-02-11T11:53:41.733Z,10.33
2023-02-11T11:56:16.510Z,9.50
2023-02-11T11:58:44.353Z,9.00
2023-02-11T12:01:46.192Z,9.84
2023-02-11T12:05:00.006Z,9.75
2023-02-11T12:07:45.773Z,9.69
2023-02-11T12:10:26.543Z,8.77
2023-02-11T12:13:20.056Z,9.51
2023-02-11T12:16:13.930Z,9.69
2023-02-11T12:19:24.523Z,8.89
2023-02-11T12:22:17.988Z,8.41
2023-02-11T12:25:01.147Z,8.55
2023-02-11T12:27:50.514Z,8.43
2023-02-11T12:30:31.854Z,8.24
2023-02-11T12:33:21.362Z,8.02
2023-02-11T12:36:43.743Z,8.04
2023-02-11T12:39:54.067Z,8.49
2023-02-11T12:42:57.149Z,8.46
2023-02-11T12:45:59.240Z,8.24
2023-02-11T12:48:38.590Z,7.92
2023-02-11T12:51:53.305Z,7.88
2023-02-11T12:54:40.146Z,7.79
2023-02-11T12:57:28.493Z,7.56
2023-02-11T13:00:14.415Z,7.44
2023-02-11T13:03:07.156Z,7.35
2023-02-11T13:05:49.552Z,7.46
2023-02-11T13:08:43.287Z,7.66
2023-02-11T13:11:24.489Z,7.59
2023-02-11T13:14:12.554Z,7.51
2023-02-11T13:16:47.727Z,7.48
2023-02-11T13:19:50.220Z,7.19
2023-02-11T13:22:29.822Z,7.00
2023-02-11T13:25:22.626Z,6.86
2023-02-11T13:28:11.207Z,6.67
2023-02-11T13:30:46.965Z,6.75
2023-02-11T13:33:34.747Z,6.63
2023-02-11T13:36:04.478Z,6.06
2023-02-11T13:38:33.241Z,5.81
2023-02-11T13:41:21.138Z,5.87
2023-02-11T13:44:22.620Z,6.19
2023-02-11T13:47:04.758Z,5.95
2023-02-11T13:49:33.742Z,5.98
2023-02-11T13:52:05.935Z,6.03
2023-02-11T13:54:39.769Z,6.03
2023-02-11T13:57:37.947Z,6.02
2023-02-11T14:00:27.997Z,5.98
2023-02-11T14:03:31.977Z,5.80
2023-02-11T14:06:26.978Z,5.96
2023-02-11T14:09:36.697Z,5.86
2023-02-11T14:12:24.900Z,5.81
2023-02-11T14:15:10.928Z,5.93
2023-02-11T14:17:38.153Z,5.93
2023-02-11T14:20:33.265Z,5.91
2023-02-11T14:23:00.842Z,5.68
2023-02-11T14:25:28.170Z,5.64
2023-02-11T14:28:07.441Z,5.63
2023-02-11T14:31:16.178Z,5.66
2023-02-11T14:34:03.693Z,5.49
2023-02-11T14:36:46.455Z,5.48
2023-02-11T14:39:25.406Z,5.41
2023-02-11T14:41:52.843Z,5.35
2023-02-11T14:44:24.524Z,5.15
2023-02-11T14:46:53.737Z,5.21
2023-02-11T14:49:28.671Z,5.17
2023-02-11T14:52:00.467Z,5.14
2023-02-11T14:54:28.889Z,5.15
2023-02-11T14:57:07.219Z,5.14
2023-02-11T14:59:35.008Z,5.12
2023-02-11T15:02:02.237Z,5.10
2023-02-11T15:04:34.501Z,5.13
2023-02-11T15:07:07.032Z,5.01
2023-02-11T15:09:39.096Z,4.98
2023-02-11T15:12:16.310Z,4.89
2023-02-11T15:14:48.439Z,4.87
2023-02-11T15:17:21.157Z,4.82
2023-02-11T15:19:53.235Z,4.72
2023-02-11T15:22:25.971Z,4.61
2023-02-11T15:25:08.628Z,4.59
2023-02-11T15:27:45.744Z,4.45
2023-02-11T15:30:21.939Z,4.35
2023-02-11T15:33:00.561Z,4.23
2023-02-11T15:35:31.307Z,4.09
2023-02-11T15:37:59.551Z,3.99
2023-02-11T15:40:30.108Z,3.89
2023-02-11T15:43:02.527Z,3.80
2023-02-11T15:45:32.449Z,3.70
2023-02-11T15:48:10.649Z,3.56
2023-02-11T15:50:40.705Z,3.47
2023-02-11T15:53:16.796Z,3.39
2023-02-11T15:55:44.074Z,3.17
2023-02-11T15:58:11.732Z,2.99
2023-02-11T16:00:50.361Z,2.74
2023-02-11T16:03:28.715Z,2.58
2023-02-11T16:05:56.546Z,2.52
2023-02-11T16:08:25.548Z,2.47
2023-02-11T16:10:58.294Z,2.29
2023-02-11T16:13:26.628Z,2.15
2023-02-11T16:15:58.544Z,2.05
2023-02-11T16:18:47.163Z,2.01
2023-02-11T16:21:21.498Z,1.98
2023-02-11T16:23:51.603Z,1.97
2023-02-11T16:26:39.410Z,1.96
2023-02-11T16:29:15.648Z,1.92
2023-02-11T16:31:45.667Z,1.89
2023-02-11T16:34:26.166Z,1.79
2023-02-11T16:36:53.422Z,1.74
2023-02-11T16:39:22.481Z,1.67
2023-02-11T16:41:51.178Z,1.53
2023-02-11T16:44:18.755Z,1.41
2023-02-11T16:46:46.050Z,1.31
2023-02-11T16:49:18.448Z,1.25
2023-02-11T16:51:48.824Z,1.22
2023-02-11T16:54:17.968Z,1.18
2023-02-11T16:56:45.208Z,1.19
2023-02-11T16:59:12.501Z,1.21
2023-02-11T17:01:40.779Z,1.27
2023-02-11T17:04:14.750Z,1.32
2023-02-11T17:06:41.962Z,1.34
2023-02-11T17:09:24.472Z,1.34
2023-02-11T17:11:52.420Z,1.30
2023-02-11T17:14:20.347Z,1.26
2023-02-11T17:16:48.156Z,1.26
2023-02-11T17:19:19.642Z,1.24
2023-02-11T17:21:49.419Z,1.28
2023-02-11T17:24:17.452Z,1.26
2023-02-11T17:26:46.115Z,1.25
2023-02-11T17:29:15.735Z,1.20
2023-02-11T17:31:43.106Z,1.16
2023-02-11T17:34:11.147Z,1.08
2023-02-11T17:36:38.542Z,1.08
2023-02-11T17:39:08.077Z,1.04
2023-02-11T17:41:37.846Z,1.01
2023-02-11T17:44:06.543Z,1.01
2023-02-11T17:46:36.880Z,1.07
2023-02-11T17:49:04.716Z,1.11
2023-02-11T17:51:34.994Z,1.10
2023-02-11T17:54:06.454Z,1.07
2023-02-11T17:56:35.898Z,1.04
2023-02-11T17:59:04.047Z,1.03
2023-02-11T18:01:32.790Z,1.07
2023-02-11T18:04:00.806Z,1.05
2023-02-11T18:06:31.589Z,0.98
2023-02-11T18:08:59.848Z,0.85
2023-02-11T18:11:27.967Z,0.74
2023-02-11T18:13:55.177Z,0.69
2023-02-11T18:16:24.605Z,0.67
2023-02-11T18:18:51.917Z,0.62
2023-02-11T18:21:21.373Z,0.57
2023-02-11T18:23:49.773Z,0.49
2023-02-11T18:26:19.333Z,0.39
2023-02-11T18:28:46.652Z,0.35
2023-02-11T18:31:14.705Z,0.36
2023-02-11T18:33:42.905Z,0.38
2023-02-11T18:36:13.380Z,0.29
2023-02-11T18:38:41.750Z,0.19
2023-02-11T18:41:09.100Z,0.20
2023-02-11T18:43:36.793Z,0.27
2023-02-11T18:46:09.224Z,0.32
2023-02-11T18:48:37.110Z,0.35
2023-02-11T18:51:12.488Z,0.35
2023-02-11T19:16:50.708Z,-0.55
2023-02-11T19:19:19.331Z,-0.57
2023-02-11T19:21:47.565Z,-0.58
2023-02-11T19:24:19.834Z,-0.66
2023-02-11T19:26:49.633Z,-0.69
2023-02-11T19:29:18.011Z,-0.72
2023-02-11T19:31:45.843Z,-0.74
2023-02-11T19:34:16.486Z,-0.69
2023-02-11T19:36:44.037Z,-0.70
2023-02-11T19:39:12.012Z,-0.70
2023-02-11T19:41:39.974Z,-0.73
2023-02-11T19:44:09.548Z,-0.73
2023-02-11T19:46:40.868Z,-0.83
2023-02-11T19:49:10.013Z,-0.87
2023-02-11T19:51:39.301Z,-0.88
2023-02-11T19:54:07.847Z,-0.85
2023-02-11T19:56:35.264Z,-0.82
2023-02-11T19:59:03.771Z,-0.82
2023-02-11T20:01:31.257Z,-0.77
2023-02-11T20:03:58.685Z,-0.69
2023-02-11T20:06:30.423Z,-0.56
2023-02-11T20:09:05.409Z,-0.43
2023-02-11T20:11:34.592Z,-0.28
2023-02-11T20:14:02.407Z,-0.17
2023-02-11T20:16:46.878Z,-0.08
2023-02-11T20:19:21.477Z,-0.01
2023-02-11T20:21:55.834Z,0.04
2023-02-11T20:24:25.253Z,0.08
2023-02-11T20:26:56.320Z,0.08
2023-02-11T20:29:25.480Z,0.10
2023-02-11T20:31:54.329Z,0.11
2023-02-11T20:34:22.213Z,0.10
2023-02-11T20:36:52.895Z,0.13
2023-02-11T20:39:22.830Z,0.19
2023-02-11T20:41:51.840Z,0.18
2023-02-11T20:44:21.803Z,0.12
2023-02-11T20:46:50.488Z,-0.01
2023-02-11T20:49:20.692Z,-0.17
2023-02-11T20:51:49.251Z,-0.32
2023-02-11T20:54:19.023Z,-0.43
2023-02-11T20:56:48.369Z,-0.50
2023-02-11T20:59:18.204Z,-0.47
2023-02-11T21:01:50.042Z,-0.41
2023-02-11T21:04:22.265Z,-0.35
2023-02-11T21:06:54.350Z,-0.24
2023-02-11T21:09:26.616Z,-0.10
2023-02-11T21:11:55.385Z,0.02
2023-02-11T21:14:24.679Z,0.10
2023-02-11T21:16:52.658Z,0.21
2023-02-11T21:19:20.377Z,0.28
2023-02-11T21:21:47.956Z,0.35
2023-02-11T21:24:15.403Z,0.42
2023-02-11T21:26:42.983Z,0.47
2023-02-11T21:29:11.880Z,0.51
2023-02-11T21:31:40.037Z,0.57
2023-02-11T21:34:07.943Z,0.60
2023-02-11T21:36:35.610Z,0.65
2023-02-11T21:39:04.103Z,0.70
2023-02-11T21:41:32.087Z,0.73
2023-02-11T21:43:59.584Z,0.80
2023-02-11T21:46:27.447Z,0.87
2023-02-11T21:48:54.931Z,0.92
2023-02-11T21:51:26.091Z,0.97
2023-02-11T21:54:01.139Z,1.00
2023-02-11T21:56:31.469Z,1.05
2023-02-11T21:59:00.405Z,1.11
2023-02-11T22:01:32.091Z,1.17
2023-02-11T22:04:00.142Z,1.21
2023-02-11T22:06:32.033Z,1.26
2023-02-11T22:09:06.931Z,1.30
2023-02-11T22:11:34.997Z,1.32
2023-02-11T22:14:02.860Z,1.34
2023-02-11T22:16:31.060Z,1.40
2023-02-11T22:18:59.054Z,1.48
2023-02-11T22:21:27.084Z,1.53
2023-02-11T22:23:56.107Z,1.51
2023-02-11T22:26:26.364Z,1.51
2023-02-11T22:28:55.071Z,1.58
2023-02-11T22:31:28.824Z,1.64
2023-02-11T22:33:57.765Z,1.73
2023-02-11T22:36:32.380Z,1.81
2023-02-11T22:39:03.025Z,1.86
2023-02-11T22:41:31.475Z,1.91
2023-02-11T22:43:58.947Z,1.93
2023-02-11T22:46:26.606Z,1.95
2023-02-11T22:48:54.010Z,1.97
2023-02-11T22:51:25.718Z,1.97
2023-02-11T22:53:59.991Z,1.97
2023-02-11T22:56:29.519Z,1.97
2023-02-11T22:59:10.376Z,1.96
2023-02-11T23:01:38.587Z,1.92
2023-02-11T23:04:08.647Z,1.93
2023-02-11T23:06:36.065Z,1.92
2023-02-11T23:09:06.151Z,1.92
2023-02-11T23:11:35.353Z,1.92
2023-02-11T23:14:04.184Z,1.88
2023-02-11T23:16:34.715Z,1.82
2023-02-11T23:19:07.883Z,1.80
2023-02-11T23:21:38.536Z,1.77
2023-02-11T23:24:13.350Z,1.73
2023-02-11T23:26:42.923Z,1.70
2023-02-11T23:29:11.839Z,1.66
2023-02-11T23:31:43.510Z,1.64
2023-02-11T23:34:11.300Z,1.60
2023-02-11T23:36:38.930Z,1.57
2023-02-11T23:39:06.424Z,1.55
2023-02-11T23:41:33.843Z,1.53
2023-02-11T23:44:01.253Z,1.56
2023-02-11T23:46:28.932Z,1.55
2023-02-11T23:48:56.617Z,1.52
2023-02-11T23:51:24.280Z,1.53
2023-02-11T23:53:52.754Z,1.56
2023-02-11T23:56:24.684Z,1.63
2023-02-11T23:58:56.175Z,1.69
